createdAt,value
2022-10-11T00:01:44.033Z,21.31
2022-10-11T00:04:10.751Z,21.32
2022-10-11T00:06:38.473Z,21.29
2022-10-11T00:09:06.026Z,21.29
2022-10-11T00:11:32.626Z,21.28
2022-10-11T00:13:59.212Z,21.25
2022-10-11T00:16:25.880Z,21.26
2022-10-11T00:18:52.428Z,21.26
2022-10-11T00:21:20.668Z,21.26
2022-10-11T00:23:48.162Z,21.26
2022-10-11T00:26:15.540Z,21.26
2022-10-11T00:28:42.623Z,21.25
2022-10-11T00:31:13.105Z,21.26
2022-10-11T00:33:39.809Z,21.26
2022-10-11T00:36:08.529Z,21.25
2022-10-11T00:38:35.448Z,21.24
2022-10-11T00:41:02.617Z,21.21
2022-10-11T00:43:30.836Z,21.21
2022-10-11T00:45:57.396Z,21.18
2022-10-11T00:48:38.346Z,21.15
2022-10-11T00:51:11.458Z,21.12
2022-10-11T00:53:38.410Z,21.11
2022-10-11T00:56:12.844Z,21.09
2022-10-11T00:58:41.325Z,21.08
2022-10-11T01:01:08.119Z,21.05
2022-10-11T01:03:37.904Z,21.02
2022-10-11T01:06:05.233Z,21.01
2022-10-11T01:08:32.468Z,21.04
2022-10-11T01:10:59.197Z,21.01
2022-10-11T01:13:43.901Z,21.02
2022-10-11T01:16:33.531Z,21.01
2022-10-11T01:19:26.507Z,21.01
2022-10-11T01:22:08.058Z,20.99
2022-10-11T01:25:04.493Z,20.98
2022-10-11T01:27:41.407Z,20.97
2022-10-11T01:30:24.437Z,20.95
2022-10-11T01:33:03.814Z,20.95
2022-10-11T01:35:39.405Z,20.94
2022-10-11T01:38:22.197Z,20.94
2022-10-11T01:41:00.114Z,20.94
2022-10-11T01:43:28.441Z,20.97
2022-10-11T01:45:57.247Z,20.92
2022-10-11T01:48:23.891Z,20.92
2022-10-11T01:50:53.511Z,20.91
2022-10-11T01:53:44.150Z,20.91
2022-10-11T01:56:19.933Z,20.84
2022-10-11T01:58:55.962Z,20.85
2022-10-11T02:02:00.810Z,20.84
2022-10-11T02:04:44.934Z,20.84
2022-10-11T02:07:31.375Z,20.85
2022-10-11T02:10:21.118Z,20.85
2022-10-11T02:13:18.162Z,20.84
2022-10-11T02:15:48.537Z,20.85
2022-10-11T02:18:19.616Z,20.84
2022-10-11T02:20:48.937Z,20.83
2022-10-11T02:23:25.781Z,20.84
2022-10-11T02:25:55.161Z,20.83
2022-10-11T02:28:27.149Z,20.84
2022-10-11T02:30:56.611Z,20.81
2022-10-11T02:33:28.502Z,20.81
2022-10-11T02:36:00.018Z,20.84
2022-10-11T02:38:38.148Z,20.83
2022-10-11T02:41:15.259Z,20.83
2022-10-11T02:43:48.952Z,20.83
2022-10-11T02:46:17.804Z,20.78
2022-10-11T02:48:44.407Z,20.80
2022-10-11T02:51:14.884Z,20.78
2022-10-11T02:53:41.529Z,20.80
2022-10-11T02:56:08.476Z,20.78
2022-10-11T02:58:35.522Z,20.77
2022-10-11T03:01:04.221Z,20.74
2022-10-11T03:03:30.744Z,20.73
2022-10-11T03:06:02.237Z,20.76
2022-10-11T03:08:29.250Z,20.76
2022-10-11T03:10:55.872Z,20.74
2022-10-11T03:13:22.844Z,20.74
2022-10-11T03:16:02.694Z,20.76
2022-10-11T03:18:31.044Z,20.74
2022-10-11T03:20:57.706Z,20.76
2022-10-11T03:23:24.234Z,20.76
2022-10-11T03:25:52.149Z,20.80
2022-10-11T03:28:19.552Z,20.77
2022-10-11T03:30:49.846Z,20.77
2022-10-11T03:33:17.246Z,20.78
2022-10-11T03:35:45.705Z,20.80
2022-10-11T03:38:18.413Z,20.78
2022-10-11T03:40:45.569Z,20.74
2022-10-11T03:43:12.542Z,20.74
2022-10-11T03:45:39.622Z,20.73
2022-10-11T03:48:06.473Z,20.70
2022-10-11T03:50:33.066Z,20.70
2022-10-11T03:52:59.641Z,20.68
2022-10-11T03:55:26.441Z,20.70
2022-10-11T03:57:53.005Z,20.67
2022-10-11T04:00:19.942Z,20.67
2022-10-11T04:02:46.772Z,20.68
2022-10-11T04:05:13.435Z,20.68
2022-10-11T04:07:40.446Z,20.68
2022-10-11T04:10:07.753Z,20.64
2022-10-11T04:12:34.630Z,20.66
2022-10-11T04:15:01.195Z,20.63
2022-10-11T04:17:27.758Z,20.63
2022-10-11T04:19:54.303Z,20.56
2022-10-11T04:22:20.938Z,20.56
2022-10-11T04:24:47.510Z,20.56
2022-10-11T04:27:14.068Z,20.54
2022-10-11T04:29:40.609Z,20.50
2022-10-11T04:32:07.212Z,20.49
2022-10-11T04:34:33.796Z,20.47
2022-10-11T04:37:00.341Z,20.47
2022-10-11T04:39:26.916Z,20.47
2022-10-11T04:41:53.480Z,20.47
2022-10-11T04:44:20.021Z,20.40
2022-10-11T04:46:46.611Z,20.40
2022-10-11T04:49:13.161Z,20.37
2022-10-11T04:51:40.076Z,20.37
2022-10-11T04:54:06.686Z,20.39
2022-10-11T04:56:33.390Z,20.39
2022-10-11T04:58:59.961Z,20.39
2022-10-11T05:01:26.592Z,20.39
2022-10-11T05:03:53.139Z,20.37
2022-10-11T05:06:19.778Z,20.37
2022-10-11T05:08:46.425Z,20.37
2022-10-11T05:11:15.928Z,20.36
2022-10-11T05:13:43.889Z,20.36
2022-10-11T05:16:11.608Z,20.36
2022-10-11T05:18:39.184Z,20.30
2022-10-11T05:21:07.565Z,20.30
2022-10-11T05:23:35.885Z,20.28
2022-10-11T05:26:03.763Z,20.26
2022-10-11T05:28:30.697Z,20.26
2022-10-11T05:30:57.439Z,20.23
2022-10-11T05:33:24.609Z,20.25
2022-10-11T05:35:51.327Z,20.25
2022-10-11T05:38:18.260Z,20.25
2022-10-11T05:40:44.992Z,20.25
2022-10-11T05:43:11.766Z,20.25
2022-10-11T05:45:42.858Z,20.23
2022-10-11T05:48:10.022Z,20.21
2022-10-11T05:50:37.489Z,20.19
2022-10-11T05:53:04.343Z,20.18
2022-10-11T05:55:35.359Z,20.16
2022-10-11T05:58:01.913Z,20.18
2022-10-11T06:00:28.530Z,20.13
2022-10-11T06:02:55.212Z,20.09
2022-10-11T06:05:21.768Z,20.09
2022-10-11T06:07:48.672Z,20.11
2022-10-11T06:10:15.274Z,20.08
2022-10-11T06:12:41.822Z,20.09
2022-10-11T06:15:10.346Z,20.06
2022-10-11T06:17:37.765Z,20.01
2022-10-11T06:20:04.733Z,20.01
2022-10-11T06:22:31.299Z,19.99
2022-10-11T06:24:57.876Z,19.99
2022-10-11T06:27:24.473Z,20.01
2022-10-11T06:29:51.013Z,19.98
2022-10-11T06:32:18.468Z,19.99
2022-10-11T06:34:45.011Z,19.99
2022-10-11T06:37:15.060Z,19.99
2022-10-11T06:39:42.243Z,19.99
2022-10-11T06:42:10.970Z,19.98
2022-10-11T06:44:38.910Z,19.98
2022-10-11T06:47:06.725Z,20.01
2022-10-11T06:49:34.073Z,19.98
2022-10-11T06:52:00.629Z,19.95
2022-10-11T06:54:27.356Z,19.94
2022-10-11T06:56:53.917Z,19.91
2022-10-11T06:59:20.514Z,19.85
2022-10-11T07:01:47.131Z,19.77
2022-10-11T07:04:13.941Z,19.79
2022-10-11T07:06:41.551Z,19.82
2022-10-11T07:09:08.601Z,19.82
2022-10-11T07:11:35.673Z,19.87
2022-10-11T07:14:07.478Z,19.92
2022-10-11T07:16:36.287Z,19.96
2022-10-11T07:19:04.713Z,19.98
2022-10-11T07:21:33.261Z,20.02
2022-10-11T07:24:00.473Z,20.08
2022-10-11T07:26:28.018Z,20.15
2022-10-11T07:28:54.620Z,20.18
2022-10-11T07:31:23.654Z,20.21
2022-10-11T07:33:50.334Z,20.28
2022-10-11T07:36:16.951Z,20.34
2022-10-11T07:38:45.311Z,20.36
2022-10-11T07:41:12.325Z,20.40
2022-10-11T07:43:39.342Z,20.43
2022-10-11T07:46:07.070Z,20.40
2022-10-11T07:48:35.556Z,20.49
2022-10-11T07:51:03.358Z,20.53
2022-10-11T07:53:30.104Z,20.51
2022-10-11T07:56:00.040Z,20.57
2022-10-11T07:58:26.579Z,20.57
2022-10-11T08:00:54.351Z,20.60
2022-10-11T08:03:21.067Z,20.63
2022-10-11T08:05:47.638Z,20.67
2022-10-11T08:08:14.359Z,20.73
2022-10-11T08:10:41.055Z,20.80
2022-10-11T08:13:07.726Z,20.85
2022-10-11T08:15:34.317Z,20.87
2022-10-11T08:18:00.971Z,20.90
2022-10-11T08:20:27.758Z,20.91
2022-10-11T08:22:55.272Z,20.95
2022-10-11T08:25:21.852Z,20.97
2022-10-11T08:27:48.428Z,20.94
2022-10-11T08:30:15.211Z,20.91
2022-10-11T08:32:41.856Z,20.94
2022-10-11T08:35:08.582Z,20.92
2022-10-11T08:37:35.147Z,20.90
2022-10-11T08:40:03.410Z,20.91
2022-10-11T08:42:36.486Z,20.87
2022-10-11T08:45:11.590Z,20.87
2022-10-11T08:47:45.109Z,20.84
2022-10-11T08:50:19.990Z,20.80
2022-10-11T08:53:13.598Z,20.77
2022-10-11T08:55:46.081Z,20.74
2022-10-11T08:58:17.316Z,20.76
2022-10-11T09:00:47.146Z,20.73
2022-10-11T09:03:36.751Z,20.78
2022-10-11T09:06:09.004Z,20.81
2022-10-11T09:08:59.275Z,20.88
2022-10-11T09:11:46.736Z,20.87
2022-10-11T09:14:22.211Z,20.87
2022-10-11T09:17:07.522Z,20.83
2022-10-11T09:19:36.947Z,20.83
2022-10-11T09:22:15.226Z,20.78
2022-10-11T09:24:55.126Z,20.77
2022-10-11T09:27:57.337Z,20.77
2022-10-11T09:30:19.666Z,20.81
2022-10-11T09:32:53.597Z,20.80
2022-10-11T09:35:22.106Z,20.83
2022-10-11T09:37:59.580Z,20.91
2022-10-11T09:40:29.081Z,20.97
2022-10-11T09:42:55.714Z,20.95
2022-10-11T09:45:22.696Z,20.99
2022-10-11T09:47:54.596Z,21.02
2022-10-11T09:50:30.634Z,21.06
2022-10-11T09:53:00.147Z,21.11
2022-10-11T09:55:50.963Z,21.15
2022-10-11T09:58:36.215Z,21.12
2022-10-11T10:01:08.521Z,21.15
2022-10-11T10:03:38.622Z,21.16
2022-10-11T10:06:22.053Z,21.19
2022-10-11T10:08:48.645Z,21.28
2022-10-11T10:11:15.532Z,21.29
2022-10-11T10:13:51.370Z,21.32
2022-10-11T10:16:29.623Z,21.36
2022-10-11T10:19:25.079Z,21.36
2022-10-11T10:21:55.453Z,21.35
2022-10-11T10:24:36.233Z,21.33
2022-10-11T10:27:17.096Z,21.43
2022-10-11T10:29:59.040Z,21.52
2022-10-11T10:32:32.659Z,21.70
2022-10-11T10:35:14.223Z,21.80
2022-10-11T10:37:58.697Z,21.86
2022-10-11T10:40:39.651Z,21.91
2022-10-11T10:43:06.235Z,21.96
2022-10-11T10:45:49.915Z,22.11
2022-10-11T10:48:24.623Z,22.26
2022-10-11T10:51:42.440Z,22.51
2022-10-11T10:54:33.820Z,22.66
2022-10-11T10:57:10.934Z,22.73
2022-10-11T10:59:49.940Z,22.83
2022-10-11T11:02:39.643Z,22.91
2022-10-11T11:05:18.978Z,23.03
2022-10-11T11:07:48.575Z,23.12
2022-10-11T11:10:23.121Z,23.17
2022-10-11T11:13:13.695Z,23.18
2022-10-11T11:15:51.762Z,23.31
2022-10-11T11:18:57.014Z,23.38
2022-10-11T11:21:41.807Z,23.39
2022-10-11T11:24:27.059Z,23.48
2022-10-11T11:27:06.469Z,23.48
2022-10-11T11:29:32.967Z,23.52
2022-10-11T11:32:11.059Z,23.55
2022-10-11T11:34:51.001Z,23.59
2022-10-11T11:37:30.984Z,23.67
2022-10-11T11:40:05.798Z,23.72
2022-10-11T11:42:47.519Z,23.73
2022-10-11T11:45:14.157Z,23.72
2022-10-11T11:47:44.111Z,23.67
2022-10-11T11:50:22.659Z,23.66
2022-10-11T11:52:56.604Z,23.65
2022-10-11T11:55:49.262Z,23.65
2022-10-11T11:58:34.326Z,23.58
2022-10-11T12:01:12.499Z,23.51
2022-10-11T12:03:44.541Z,23.48
2022-10-11T12:06:14.324Z,23.42
2022-10-11T12:08:43.510Z,23.45
2022-10-11T12:11:39.647Z,23.45
2022-10-11T12:14:41.896Z,23.48
2022-10-11T12:17:18.903Z,23.45
2022-10-11T12:20:21.077Z,23.42
2022-10-11T12:22:52.508Z,23.45
2022-10-11T12:25:22.210Z,23.41
2022-10-11T12:27:50.669Z,23.39
2022-10-11T12:30:47.116Z,23.37
2022-10-11T12:33:41.840Z,23.35
2022-10-11T12:36:23.204Z,23.39
2022-10-11T12:39:18.768Z,23.41
2022-10-11T12:41:51.582Z,23.42
2022-10-11T12:44:28.675Z,23.46
2022-10-11T12:46:55.203Z,23.49
2022-10-11T12:49:34.081Z,23.48
2022-10-11T12:52:24.214Z,23.49
2022-10-11T12:55:00.296Z,23.45
2022-10-11T12:57:52.877Z,23.44
2022-10-11T13:00:23.707Z,23.45
2022-10-11T13:02:50.644Z,23.46
2022-10-11T13:05:26.103Z,23.44
2022-10-11T13:07:59.192Z,23.45
2022-10-11T13:10:30.842Z,23.48
2022-10-11T13:13:00.124Z,23.51
2022-10-11T13:15:26.852Z,23.49
2022-10-11T13:17:59.847Z,23.51
2022-10-11T13:20:30.584Z,23.49
2022-10-11T13:22:58.368Z,23.46
2022-10-11T13:25:35.878Z,23.46
2022-10-11T13:28:02.797Z,23.49
2022-10-11T13:30:30.625Z,23.55
2022-10-11T13:32:58.981Z,23.55
2022-10-11T13:35:35.471Z,23.58
2022-10-11T13:38:03.638Z,23.54
2022-10-11T13:40:31.749Z,23.54
2022-10-11T13:42:59.132Z,23.55
2022-10-11T13:45:28.198Z,23.58
2022-10-11T13:47:55.355Z,23.55
2022-10-11T13:50:32.298Z,23.54
2022-10-11T13:53:09.514Z,23.56
2022-10-11T13:55:41.818Z,23.55
2022-10-11T13:58:25.834Z,23.55
2022-10-11T14:00:58.762Z,23.55
2022-10-11T14:03:39.961Z,23.56
2022-10-11T14:06:07.887Z,23.55
2022-10-11T14:08:45.954Z,23.56
2022-10-11T14:11:14.528Z,23.58
2022-10-11T14:13:46.844Z,23.62
2022-10-11T14:16:30.001Z,23.61
2022-10-11T14:18:59.652Z,23.66
2022-10-11T14:21:48.022Z,23.58
2022-10-11T14:24:17.784Z,23.58
2022-10-11T14:26:47.310Z,23.56
2022-10-11T14:29:24.014Z,23.58
2022-10-11T14:31:50.882Z,23.63
2022-10-11T14:34:20.800Z,23.65
2022-10-11T14:36:48.452Z,23.69
2022-10-11T14:39:20.604Z,23.66
2022-10-11T14:41:47.360Z,23.66
2022-10-11T14:44:14.728Z,23.65
2022-10-11T14:46:41.448Z,23.65
2022-10-11T14:49:18.743Z,23.62
2022-10-11T14:51:47.920Z,23.63
2022-10-11T14:54:16.273Z,23.65
2022-10-11T14:56:42.887Z,23.66
2022-10-11T14:59:14.171Z,23.66
2022-10-11T15:01:40.884Z,23.70
2022-10-11T15:04:07.469Z,23.70
2022-10-11T15:06:37.830Z,23.69
2022-10-11T15:09:05.940Z,23.66
2022-10-11T15:11:32.552Z,23.69
2022-10-11T15:13:59.197Z,23.67
2022-10-11T15:16:26.945Z,23.70
2022-10-11T15:18:53.503Z,23.69
2022-10-11T15:21:26.016Z,23.72
2022-10-11T15:23:53.934Z,23.69
2022-10-11T15:26:23.988Z,23.72
2022-10-11T15:28:51.355Z,23.72
2022-10-11T15:31:18.430Z,23.72
2022-10-11T15:33:45.217Z,23.73
2022-10-11T15:36:17.705Z,23.72
2022-10-11T15:38:45.318Z,23.69
2022-10-11T15:41:13.795Z,23.69
2022-10-11T15:43:40.490Z,23.69
2022-10-11T15:46:07.430Z,23.69
2022-10-11T15:48:35.317Z,23.67
2022-10-11T15:51:01.861Z,23.66
2022-10-11T15:53:31.582Z,23.63
2022-10-11T15:56:04.877Z,23.63
2022-10-11T15:58:34.783Z,23.62
2022-10-11T16:01:06.687Z,23.61
2022-10-11T16:03:34.325Z,23.58
2022-10-11T16:06:05.142Z,23.59
2022-10-11T16:08:33.545Z,23.61
2022-10-11T16:11:00.310Z,23.56
2022-10-11T16:13:26.901Z,23.56
2022-10-11T16:15:53.774Z,23.54
2022-10-11T16:18:21.178Z,23.52
2022-10-11T16:20:49.549Z,23.51
2022-10-11T16:23:16.215Z,23.48
2022-10-11T16:25:42.846Z,23.51
2022-10-11T16:28:10.620Z,23.46
2022-10-11T16:30:43.275Z,23.42
2022-10-11T16:33:10.070Z,23.42
2022-10-11T16:35:40.617Z,23.39
2022-10-11T16:38:07.331Z,23.37
2022-10-11T16:40:35.924Z,23.38
2022-10-11T16:43:07.389Z,23.38
2022-10-11T16:45:35.414Z,23.34
2022-10-11T16:48:02.104Z,23.34
2022-10-11T16:50:29.173Z,23.29
2022-10-11T16:52:56.818Z,23.31
2022-10-11T16:55:23.635Z,23.28
2022-10-11T16:57:50.341Z,23.27
2022-10-11T17:00:17.102Z,23.24
2022-10-11T17:02:43.847Z,23.21
2022-10-11T17:05:10.464Z,23.19
2022-10-11T17:07:37.179Z,23.19
2022-10-11T17:10:05.160Z,23.18
2022-10-11T17:12:32.528Z,23.14
2022-10-11T17:14:59.136Z,23.12
2022-10-11T17:17:27.036Z,23.08
2022-10-11T17:19:53.703Z,23.07
2022-10-11T17:22:20.459Z,23.04
2022-10-11T17:24:47.487Z,23.01
2022-10-11T17:27:14.470Z,22.97
2022-10-11T17:29:41.090Z,22.93
2022-10-11T17:32:08.400Z,22.93
2022-10-11T17:34:35.022Z,22.87
2022-10-11T17:37:01.613Z,22.86
2022-10-11T17:39:28.297Z,22.84
2022-10-11T17:41:54.869Z,22.80
2022-10-11T17:44:21.804Z,22.79
2022-10-11T17:46:48.777Z,22.77
2022-10-11T17:49:15.459Z,22.74
2022-10-11T17:51:43.571Z,22.72
2022-10-11T17:54:13.236Z,22.69
2022-10-11T17:56:41.674Z,22.66
2022-10-11T17:59:14.459Z,22.66
2022-10-11T18:01:41.146Z,22.64
2022-10-11T18:04:10.170Z,22.60
2022-10-11T18:06:39.530Z,22.60
2022-10-11T18:09:06.240Z,22.57
2022-10-11T18:11:33.240Z,22.57
2022-10-11T18:14:00.882Z,22.57
2022-10-11T18:16:29.276Z,22.53
2022-10-11T18:18:57.539Z,22.52
2022-10-11T18:21:33.570Z,22.49
2022-10-11T18:24:02.306Z,22.45
2022-10-11T18:26:30.782Z,22.46
2022-10-11T18:28:58.460Z,22.43
2022-10-11T18:31:28.515Z,22.39
2022-10-11T18:33:55.766Z,22.38
2022-10-11T18:36:26.780Z,22.32
2022-10-11T18:38:55.523Z,22.29
2022-10-11T18:41:24.086Z,22.29
2022-10-11T18:43:55.336Z,22.29
2022-10-11T18:46:23.472Z,22.29
2022-10-11T18:48:52.979Z,22.29
2022-10-11T18:51:22.779Z,22.25
2022-10-11T18:53:49.840Z,22.25
2022-10-11T18:56:20.673Z,22.22
2022-10-11T18:58:49.613Z,22.21
2022-10-11T19:01:20.601Z,22.24
2022-10-11T19:03:50.043Z,22.21
2022-10-11T19:06:19.650Z,22.19
2022-10-11T19:08:54.641Z,22.15
2022-10-11T19:11:22.344Z,22.11
2022-10-11T19:14:03.263Z,22.08
2022-10-11T19:16:30.643Z,22.07
2022-10-11T19:18:58.056Z,22.07
2022-10-11T19:21:24.981Z,22.07
2022-10-11T19:23:52.636Z,22.02
2022-10-11T19:26:33.462Z,22.00
2022-10-11T19:29:05.987Z,21.97
2022-10-11T19:31:34.439Z,21.93
2022-10-11T19:34:01.635Z,21.93
2022-10-11T19:36:32.583Z,21.93
2022-10-11T19:39:03.003Z,21.93
2022-10-11T19:41:30.272Z,21.94
2022-10-11T19:43:58.259Z,21.96
2022-10-11T19:46:50.499Z,21.94
2022-10-11T19:49:15.702Z,21.90
2022-10-11T19:51:42.472Z,21.88
2022-10-11T19:54:12.502Z,21.86
2022-10-11T19:56:39.625Z,21.84
2022-10-11T19:59:06.677Z,21.80
2022-10-11T20:01:34.756Z,21.81
2022-10-11T20:04:18.805Z,21.81
2022-10-11T20:06:56.851Z,21.76
2022-10-11T20:09:29.456Z,21.74
2022-10-11T20:11:56.790Z,21.76
2022-10-11T20:14:23.453Z,21.73
2022-10-11T20:16:50.846Z,21.71
2022-10-11T20:19:17.599Z,21.70
2022-10-11T20:21:45.015Z,21.71
2022-10-11T20:24:11.759Z,21.67
2022-10-11T20:26:39.157Z,21.66
2022-10-11T20:29:05.890Z,21.60
2022-10-11T20:31:34.162Z,21.60
2022-10-11T20:34:02.238Z,21.62
2022-10-11T20:36:30.189Z,21.57
2022-10-11T20:38:58.309Z,21.53
2022-10-11T20:41:33.604Z,21.47
2022-10-11T20:44:01.950Z,21.45
2022-10-11T20:46:31.610Z,21.45
2022-10-11T20:49:02.090Z,21.46
2022-10-11T20:51:34.503Z,21.45
2022-10-11T20:54:02.213Z,21.46
2022-10-11T20:56:29.935Z,21.45
2022-10-11T20:58:58.006Z,21.43
2022-10-11T21:01:30.662Z,21.41
2022-10-11T21:03:59.065Z,21.42
2022-10-11T21:06:26.254Z,21.38
2022-10-11T21:08:54.875Z,21.38
2022-10-11T21:11:21.544Z,21.35
2022-10-11T21:13:48.115Z,21.33
2022-10-11T21:16:16.382Z,21.33
2022-10-11T21:18:43.038Z,21.32
2022-10-11T21:21:11.935Z,21.33
2022-10-11T21:23:39.114Z,21.31
2022-10-11T21:26:08.220Z,21.29
2022-10-11T21:28:35.075Z,21.29
2022-10-11T21:31:12.581Z,21.31
2022-10-11T21:33:40.089Z,21.31
2022-10-11T21:36:09.646Z,21.28
2022-10-11T21:38:37.065Z,21.29
2022-10-11T21:41:05.138Z,21.28
2022-10-11T21:43:31.767Z,21.26
2022-10-11T21:45:58.374Z,21.25
2022-10-11T21:48:24.906Z,21.25
2022-10-11T21:50:55.188Z,21.18
2022-10-11T21:53:21.837Z,21.18
2022-10-11T21:55:48.409Z,21.11
2022-10-11T21:58:16.132Z,21.11
2022-10-11T22:00:42.697Z,21.11
2022-10-11T22:03:09.236Z,21.12
2022-10-11T22:05:35.794Z,21.11
2022-10-11T22:08:02.375Z,21.09
2022-10-11T22:10:28.953Z,21.04
2022-10-11T22:12:55.509Z,21.04
2022-10-11T22:15:22.074Z,21.05
2022-10-11T22:17:48.651Z,21.04
2022-10-11T22:20:15.294Z,21.01
2022-10-11T22:22:41.865Z,21.02
2022-10-11T22:25:08.921Z,20.99
2022-10-11T22:27:35.493Z,20.97
2022-10-11T22:30:02.096Z,20.97
2022-10-11T22:32:28.687Z,20.97
2022-10-11T22:34:55.207Z,20.95
2022-10-11T22:37:21.832Z,20.92
2022-10-11T22:39:48.583Z,20.90
2022-10-11T22:42:15.118Z,20.87
2022-10-11T22:44:41.657Z,20.87
2022-10-11T22:47:08.306Z,20.87
2022-10-11T22:49:34.844Z,20.87
2022-10-11T22:52:01.392Z,20.88
2022-10-11T22:54:27.981Z,20.88
2022-10-11T22:56:54.529Z,20.87
2022-10-11T22:59:21.059Z,20.85
2022-10-11T23:01:47.659Z,20.83
2022-10-11T23:04:17.535Z,20.80
2022-10-11T23:06:44.297Z,20.83
2022-10-11T23:09:10.834Z,20.83
2022-10-11T23:11:37.366Z,20.84
2022-10-11T23:14:04.623Z,20.85
2022-10-11T23:16:31.210Z,20.84
2022-10-11T23:18:57.835Z,20.81
2022-10-11T23:21:24.424Z,20.78
2022-10-11T23:23:54.906Z,20.74
2022-10-11T23:26:21.853Z,20.71
2022-10-11T23:28:48.526Z,20.67
2022-10-11T23:31:17.138Z,20.61
2022-10-11T23:33:44.923Z,20.61
2022-10-11T23:36:23.834Z,20.60
2022-10-11T23:38:55.732Z,20.60
2022-10-11T23:41:29.488Z,20.59
2022-10-11T23:43:56.315Z,20.56
2022-10-11T23:46:23.263Z,20.56
2022-10-11T23:48:49.928Z,20.53
2022-10-11T23:51:16.651Z,20.56
2022-10-11T23:53:43.289Z,20.56
2022-10-11T23:56:11.738Z,20.59
2022-10-11T23:58:38.701Z,20.57
